Time;durP1;ratioP1;P1;durP2;ratioP2;P2;SDS_P1;SDS_P2;PMS_P1;PMS_P2;Temp;Humidity;BMP_temperature;BMP_pressure;BME280_temperature;BME280_humidity;BME280_pressure;Samples;Min_cycle;Max_cycle;Signal;HPM_P1;HPM_P2
2021/03/24 00:00:17;;;;;;;;;;;6.10;92.70;;;;;;5035808;28;19904;-86
2021/03/24 00:02:43;;;;;;;;;;;6.00;92.70;;;;;;5036489;28;20002;-87
2021/03/24 00:05:13;;;;;;;;;;;6.00;92.80;;;;;;5036872;28;19911;-86
2021/03/24 00:07:40;;;;;;;;;;;5.90;92.80;;;;;;5054550;28;19909;-86
2021/03/24 00:10:06;;;;;;;;;;;5.90;92.90;;;;;;5053693;28;20008;-86
2021/03/24 00:12:33;;;;;;;;;;;5.90;92.90;;;;;;5036385;28;19919;-86
2021/03/24 00:14:59;;;;;;;;;;;6.00;92.70;;;;;;5035855;28;20361;-86
2021/03/24 00:17:24;;;;;;;;;;;6.10;92.60;;;;;;5054308;28;19904;-87
2021/03/24 00:19:50;;;;;;;;;;;6.10;92.50;;;;;;5053988;28;19943;-86
2021/03/24 00:22:15;;;;;;;;;;;6.10;92.40;;;;;;5054189;28;20003;-86
2021/03/24 00:24:41;;;;;;;;;;;6.10;92.40;;;;;;5036377;28;20480;-86
2021/03/24 00:27:06;;;;;;;;;;;6.10;92.40;;;;;;5054133;28;19966;-86
2021/03/24 00:29:32;;;;;;;;;;;6.10;92.20;;;;;;5053657;28;19911;-86
2021/03/24 00:31:57;;;;;;;;;;;6.10;92.20;;;;;;5053794;28;20289;-86
2021/03/24 00:34:23;;;;;;;;;;;6.00;92.50;;;;;;5054020;28;19908;-85
2021/03/24 00:36:48;;;;;;;;;;;5.90;92.60;;;;;;5036346;28;19948;-86
2021/03/24 00:39:17;;;;;;;;;;;5.90;92.40;;;;;;5035435;28;20341;-87
2021/03/24 00:41:43;;;;;;;;;;;5.80;92.40;;;;;;5053912;28;19979;-86
2021/03/24 00:44:08;;;;;;;;;;;5.90;92.50;;;;;;5052535;28;19917;-86
2021/03/24 00:46:34;;;;;;;;;;;5.80;92.50;;;;;;5039645;28;20000;-86
2021/03/24 00:48:59;;;;;;;;;;;5.70;92.60;;;;;;5039706;28;19904;-86
2021/03/24 00:51:25;;;;;;;;;;;5.70;92.70;;;;;;5057817;28;19912;-87
2021/03/24 00:53:50;;;;;;;;;;;5.70;92.80;;;;;;5056161;28;19913;-86
2021/03/24 00:56:16;;;;;;;;;;;5.70;92.80;;;;;;5056543;28;19905;-86
2021/03/24 00:58:41;;;;;;;;;;;5.60;92.90;;;;;;5056508;28;19905;-86
2021/03/24 01:01:07;;;;;;;;;;;5.60;93.00;;;;;;5056380;28;20054;-87
2021/03/24 01:03:34;;;;;;;;;;;5.50;93.00;;;;;;5040192;28;19905;-86
2021/03/24 01:06:00;;;;;;;;;;;5.50;93.10;;;;;;5057589;28;19905;-87
2021/03/24 01:08:26;;;;;;;;;;;5.50;93.00;;;;;;5057482;28;20412;-86
2021/03/24 01:10:52;;;;;;;;;;;5.50;93.10;;;;;;5038966;28;19905;-86
2021/03/24 01:13:18;;;;;;;;;;;5.60;92.90;;;;;;5057710;28;19932;-86
2021/03/24 01:15:43;;;;;;;;;;;5.60;92.90;;;;;;5057309;28;19905;-86
2021/03/24 01:18:09;;;;;;;;;;;5.60;92.70;;;;;;5056762;28;19908;-86
2021/03/24 01:20:35;;;;;;;;;;;5.60;92.70;;;;;;5037690;28;19912;-86
2021/03/24 01:23:01;;;;;;;;;;;5.60;92.80;;;;;;5039038;28;20282;-85
2021/03/24 01:25:26;;;;;;;;;;;5.60;92.80;;;;;;5038668;28;19912;-85
2021/03/24 01:27:53;;;;;;;;;;;5.60;92.70;;;;;;5038736;28;19974;-86
2021/03/24 01:30:19;;;;;;;;;;;5.60;92.70;;;;;;5039520;28;19919;-86
2021/03/24 01:32:45;;;;;;;;;;;5.60;92.70;;;;;;5038684;28;20361;-85
2021/03/24 01:35:11;;;;;;;;;;;5.50;92.70;;;;;;5038745;28;19911;-86
2021/03/24 01:37:40;;;;;;;;;;;5.50;92.80;;;;;;5056575;28;19912;-85
2021/03/24 01:40:07;;;;;;;;;;;5.40;92.80;;;;;;5056453;28;19912;-88
2021/03/24 01:42:33;;;;;;;;;;;5.40;92.80;;;;;;5056978;28;19905;-85
2021/03/24 01:45:14;;;;;;;;;;;5.40;92.90;;;;;;5057141;28;20571;-85
2021/03/24 01:47:39;;;;;;;;;;;5.30;92.90;;;;;;5038973;28;20073;-85
2021/03/24 01:50:28;;;;;;;;;;;5.40;92.90;;;;;;5056844;28;19912;-85
2021/03/24 01:52:53;;;;;;;;;;;5.50;92.70;;;;;;5050826;28;19920;-85
2021/03/24 01:55:19;;;;;;;;;;;5.40;92.80;;;;;;5038660;28;19908;-85
2021/03/24 01:57:45;;;;;;;;;;;5.30;92.80;;;;;;5037790;28;19940;-85
2021/03/24 02:00:14;;;;;;;;;;;5.30;92.90;;;;;;5037907;28;20254;-86
2021/03/24 02:02:40;;;;;;;;;;;5.30;92.80;;;;;;5055734;28;19946;-85
2021/03/24 02:05:06;;;;;;;;;;;5.30;92.80;;;;;;5056105;28;19913;-86
2021/03/24 02:07:48;;;;;;;;;;;5.30;92.90;;;;;;5037903;28;19905;-85
2021/03/24 02:10:20;;;;;;;;;;;5.30;92.90;;;;;;5055850;28;19935;-85
2021/03/24 02:12:50;;;;;;;;;;;5.20;93.00;;;;;;5055763;28;19943;-85
2021/03/24 02:15:19;;;;;;;;;;;5.10;93.10;;;;;;5038284;28;20004;-85
2021/03/24 02:17:45;;;;;;;;;;;5.10;93.10;;;;;;5038153;28;19904;-86
2021/03/24 02:20:13;;;;;;;;;;;5.10;93.00;;;;;;5055679;28;19912;-86
2021/03/24 02:22:43;;;;;;;;;;;5.20;92.80;;;;;;5037745;28;20357;-85
2021/03/24 02:25:32;;;;;;;;;;;5.10;92.90;;;;;;5037658;28;19916;-85
2021/03/24 02:27:59;;;;;;;;;;;5.20;92.90;;;;;;5034779;28;19947;-85
2021/03/24 02:30:25;;;;;;;;;;;5.10;92.80;;;;;;5037472;28;19919;-86
2021/03/24 02:32:53;;;;;;;;;;;5.00;92.90;;;;;;5037270;28;19909;-88
2021/03/24 02:35:22;;;;;;;;;;;5.10;92.90;;;;;;5037163;28;19963;-86
2021/03/24 02:37:47;;;;;;;;;;;5.10;92.90;;;;;;5037217;28;20356;-85
2021/03/24 02:40:16;;;;;;;;;;;5.00;92.90;;;;;;5037228;28;19948;-88
2021/03/24 02:42:44;;;;;;;;;;;5.00;92.90;;;;;;5055140;28;20001;-86
2021/03/24 02:45:10;;;;;;;;;;;5.00;93.00;;;;;;5037545;28;19908;-86
2021/03/24 02:47:36;;;;;;;;;;;5.00;93.00;;;;;;5054101;28;19904;-85
2021/03/24 02:50:02;;;;;;;;;;;5.00;93.00;;;;;;5037642;28;19948;-85
2021/03/24 02:52:28;;;;;;;;;;;5.00;93.00;;;;;;5037519;28;19952;-85
2021/03/24 02:54:54;;;;;;;;;;;5.00;93.00;;;;;;5037310;28;19963;-85
2021/03/24 02:57:20;;;;;;;;;;;5.10;93.00;;;;;;5055404;28;19909;-85
2021/03/24 02:59:45;;;;;;;;;;;5.10;92.80;;;;;;5037207;28;19904;-86
2021/03/24 03:02:15;;;;;;;;;;;5.10;92.90;;;;;;5037196;28;19911;-85
2021/03/24 03:04:45;;;;;;;;;;;5.20;92.80;;;;;;5037211;28;19920;-85
2021/03/24 03:07:25;;;;;;;;;;;5.20;92.80;;;;;;5054919;28;19904;-85
2021/03/24 03:10:06;;;;;;;;;;;5.20;92.90;;;;;;5037214;28;19905;-85
2021/03/24 03:12:33;;;;;;;;;;;5.20;92.80;;;;;;5054498;28;19905;-85
2021/03/24 03:15:00;;;;;;;;;;;5.20;92.60;;;;;;5054112;28;19951;-85
2021/03/24 03:17:36;;;;;;;;;;;5.20;92.70;;;;;;5054354;28;19951;-87
2021/03/24 03:20:08;;;;;;;;;;;5.30;92.80;;;;;;5036671;28;20419;-87
2021/03/24 03:22:37;;;;;;;;;;;5.20;92.70;;;;;;5036818;28;19956;-87
2021/03/24 03:25:09;;;;;;;;;;;5.20;92.80;;;;;;5036822;28;19948;-85
2021/03/24 03:27:35;;;;;;;;;;;5.30;92.80;;;;;;5036716;28;19905;-85
2021/03/24 03:30:01;;;;;;;;;;;5.40;92.60;;;;;;5036729;28;20356;-87
2021/03/24 03:32:28;;;;;;;;;;;5.50;92.90;;;;;;5036765;28;19904;-85
2021/03/24 03:35:05;;;;;;;;;;;5.50;92.40;;;;;;5036693;28;19930;-87
2021/03/24 03:37:31;;;;;;;;;;;5.60;92.30;;;;;;5054362;28;19955;-85
2021/03/24 03:39:57;;;;;;;;;;;5.80;92.00;;;;;;5054351;28;19947;-85
2021/03/24 03:42:23;;;;;;;;;;;5.80;91.90;;;;;;5054403;28;20297;-86
2021/03/24 03:44:50;;;;;;;;;;;5.80;92.10;;;;;;5036308;28;19908;-86
2021/03/24 03:47:16;;;;;;;;;;;5.70;91.80;;;;;;5036153;28;19905;-85
2021/03/24 03:49:42;;;;;;;;;;;5.80;91.80;;;;;;5036040;28;19904;-85
2021/03/24 03:52:27;;;;;;;;;;;5.70;91.70;;;;;;5036213;28;19904;-85
2021/03/24 03:55:08;;;;;;;;;;;5.70;91.90;;;;;;5035737;28;20026;-86
2021/03/24 03:57:36;;;;;;;;;;;5.60;92.00;;;;;;5035744;28;20358;-86
2021/03/24 04:00:10;;;;;;;;;;;5.50;92.10;;;;;;5035699;28;19905;-85
2021/03/24 04:02:45;;;;;;;;;;;5.60;92.00;;;;;;5035378;28;19919;-85
2021/03/24 04:05:14;;;;;;;;;;;5.60;91.90;;;;;;5053378;28;20304;-86
2021/03/24 04:08:01;;;;;;;;;;;5.50;91.90;;;;;;5035717;28;19904;-85
2021/03/24 04:10:30;;;;;;;;;;;5.60;92.00;;;;;;5053371;28;19982;-87
2021/03/24 04:12:56;;;;;;;;;;;5.60;91.90;;;;;;5035252;28;20396;-85
2021/03/24 04:15:22;;;;;;;;;;;5.60;91.90;;;;;;5051938;28;19904;-85
2021/03/24 04:17:49;;;;;;;;;;;5.60;91.90;;;;;;5035209;28;20324;-85
2021/03/24 04:20:16;;;;;;;;;;;5.60;92.00;;;;;;5035418;28;20361;-85
2021/03/24 04:22:42;;;;;;;;;;;5.60;91.90;;;;;;5053353;28;20000;-85
2021/03/24 04:25:08;;;;;;;;;;;5.60;91.70;;;;;;5035383;28;19904;-85
2021/03/24 04:27:36;;;;;;;;;;;5.50;91.90;;;;;;5053123;28;19923;-85
2021/03/24 04:30:06;;;;;;;;;;;5.50;92.00;;;;;;5052925;28;19999;-85
2021/03/24 04:32:32;;;;;;;;;;;5.50;91.90;;;;;;5052975;28;20334;-87
2021/03/24 04:34:57;;;;;;;;;;;5.50;92.00;;;;;;5035204;28;19948;-85
2021/03/24 04:37:28;;;;;;;;;;;5.50;91.90;;;;;;5035258;28;19904;-85
2021/03/24 04:39:53;;;;;;;;;;;5.60;91.90;;;;;;5053078;28;20467;-85
2021/03/24 04:42:22;;;;;;;;;;;5.60;91.80;;;;;;5035182;28;19913;-85
2021/03/24 04:44:48;;;;;;;;;;;5.60;91.80;;;;;;5034991;28;20019;-85
2021/03/24 04:47:33;;;;;;;;;;;5.60;91.80;;;;;;5035089;28;19908;-88
2021/03/24 04:50:00;;;;;;;;;;;5.60;91.70;;;;;;5035267;28;19904;-85
2021/03/24 04:52:26;;;;;;;;;;;5.50;91.70;;;;;;5034948;28;19905;-86
2021/03/24 04:54:52;;;;;;;;;;;5.60;91.90;;;;;;5034954;28;20412;-85
2021/03/24 04:57:20;;;;;;;;;;;5.50;91.70;;;;;;5034923;28;19905;-88
2021/03/24 04:59:48;;;;;;;;;;;5.50;91.90;;;;;;5034987;28;19911;-85
2021/03/24 05:02:15;;;;;;;;;;;5.50;91.90;;;;;;5052610;28;20278;-85
2021/03/24 05:04:47;;;;;;;;;;;5.50;91.70;;;;;;5034972;28;20305;-85
2021/03/24 05:07:20;;;;;;;;;;;5.50;91.80;;;;;;5034933;28;20361;-86
2021/03/24 05:09:46;;;;;;;;;;;5.40;92.00;;;;;;5053543;28;19912;-85
2021/03/24 05:12:38;;;;;;;;;;;5.50;91.90;;;;;;5034852;28;19905;-85
2021/03/24 05:15:06;;;;;;;;;;;5.50;91.90;;;;;;5033683;28;19908;-85
2021/03/24 05:17:34;;;;;;;;;;;5.40;92.00;;;;;;5034703;28;19939;-86
2021/03/24 05:20:02;;;;;;;;;;;5.30;92.10;;;;;;5052685;28;19909;-85
2021/03/24 05:22:43;;;;;;;;;;;5.40;92.10;;;;;;5034768;28;19904;-85
2021/03/24 05:25:29;;;;;;;;;;;5.40;92.00;;;;;;5034919;28;19923;-85
2021/03/24 05:46:45;;;;;;;;;;;5.40;92.00;;;;;;4983421;28;19970;-86
2021/03/24 05:49:30;;;;;;;;;;;5.50;91.80;;;;;;5039017;28;19927;-85
2021/03/24 05:52:14;;;;;;;;;;;5.40;92.10;;;;;;5056787;28;19905;-88
2021/03/24 05:54:45;;;;;;;;;;;5.40;92.00;;;;;;5056585;28;19931;-88
2021/03/24 05:57:11;;;;;;;;;;;5.40;91.90;;;;;;5038858;28;19905;-85
2021/03/24 05:59:51;;;;;;;;;;;5.50;91.90;;;;;;5056628;28;20046;-85
2021/03/24 06:02:42;;;;;;;;;;;5.50;91.80;;;;;;5056516;28;20456;-85
2021/03/24 06:05:09;;;;;;;;;;;5.50;91.80;;;;;;5038527;28;19908;-86
2021/03/24 06:07:56;;;;;;;;;;;5.50;91.80;;;;;;5055923;28;19905;-86
2021/03/24 06:10:30;;;;;;;;;;;5.50;91.90;;;;;;5038289;28;19944;-85
2021/03/24 06:13:05;;;;;;;;;;;5.60;91.70;;;;;;5056673;28;19908;-87
2021/03/24 06:28:18;;;;;;;;;;;5.70;91.90;;;;;;5015008;28;19911;-87
2021/03/24 06:30:54;;;;;;;;;;;5.70;91.90;;;;;;5014606;28;19912;-85
2021/03/24 06:33:25;;;;;;;;;;;5.70;91.70;;;;;;4998152;28;19913;-85
2021/03/24 06:35:57;;;;;;;;;;;5.60;91.90;;;;;;5035689;28;19931;-86
2021/03/24 06:38:40;;;;;;;;;;;5.70;91.90;;;;;;5038078;28;19912;-85
2021/03/24 06:41:24;;;;;;;;;;;5.70;91.90;;;;;;5054775;28;19905;-85
2021/03/24 06:43:59;;;;;;;;;;;5.70;91.90;;;;;;5037001;28;19919;-86
2021/03/24 06:46:40;;;;;;;;;;;5.70;91.80;;;;;;5037953;28;19909;-87
2021/03/24 06:49:18;;;;;;;;;;;5.70;91.80;;;;;;5055601;28;19905;-85
2021/03/24 06:51:55;;;;;;;;;;;5.80;91.90;;;;;;5037714;28;19912;-86
2021/03/24 06:54:21;;;;;;;;;;;5.90;91.70;;;;;;5037605;28;19913;-85
2021/03/24 06:56:59;;;;;;;;;;;5.90;91.70;;;;;;5037055;28;20281;-85
2021/03/24 06:59:43;;;;;;;;;;;5.90;91.60;;;;;;5037108;28;19904;-85
2021/03/24 07:02:15;;;;;;;;;;;6.00;91.50;;;;;;5036916;28;20194;-85
2021/03/24 07:04:59;;;;;;;;;;;6.10;91.40;;;;;;5054977;28;19912;-85
2021/03/24 07:07:41;;;;;;;;;;;6.10;91.50;;;;;;5036907;28;19927;-85
2021/03/24 07:10:19;;;;;;;;;;;6.20;91.30;;;;;;5037357;28;19935;-87
2021/03/24 07:13:03;;;;;;;;;;;6.20;91.30;;;;;;5036693;28;20296;-85
2021/03/24 07:15:31;;;;;;;;;;;6.30;91.30;;;;;;5036911;28;19912;-85
2021/03/24 07:18:03;;;;;;;;;;;6.30;91.20;;;;;;5037133;28;19988;-86
2021/03/24 07:20:47;;;;;;;;;;;6.40;91.10;;;;;;5036785;28;19904;-85
2021/03/24 07:23:27;;;;;;;;;;;6.40;91.20;;;;;;5036678;28;19904;-85
2021/03/24 07:25:59;;;;;;;;;;;6.50;91.00;;;;;;5053766;28;19909;-85
2021/03/24 07:28:49;;;;;;;;;;;6.50;91.10;;;;;;5036105;28;19995;-85
2021/03/24 07:31:29;;;;;;;;;;;6.60;90.90;;;;;;5035491;28;19909;-85
2021/03/24 07:34:13;;;;;;;;;;;6.60;90.80;;;;;;5035741;28;19909;-85
2021/03/24 07:36:43;;;;;;;;;;;6.70;90.80;;;;;;5053641;28;19909;-85
2021/03/24 07:39:11;;;;;;;;;;;6.70;90.70;;;;;;5035233;28;19909;-85
2021/03/24 07:41:49;;;;;;;;;;;6.80;90.60;;;;;;5035577;28;19908;-85
2021/03/24 07:44:15;;;;;;;;;;;6.80;90.70;;;;;;5053379;28;19904;-85
2021/03/24 07:46:59;;;;;;;;;;;6.90;90.70;;;;;;5035688;28;20000;-85
2021/03/24 07:49:42;;;;;;;;;;;6.90;90.40;;;;;;5052929;28;19975;-85
2021/03/24 07:52:20;;;;;;;;;;;7.00;90.40;;;;;;5035709;28;20308;-85
2021/03/24 07:54:55;;;;;;;;;;;7.00;90.40;;;;;;5035090;28;19919;-86
2021/03/24 07:57:20;;;;;;;;;;;7.10;90.50;;;;;;5035503;28;19904;-84
2021/03/24 08:00:00;;;;;;;;;;;7.10;90.50;;;;;;5034811;28;19905;-86
2021/03/24 08:02:29;;;;;;;;;;;7.30;90.30;;;;;;5035515;28;19909;-85
2021/03/24 08:05:09;;;;;;;;;;;7.30;90.40;;;;;;5035471;28;19911;-85
2021/03/24 08:07:38;;;;;;;;;;;7.30;90.20;;;;;;5035118;28;19927;-85
2021/03/24 08:10:18;;;;;;;;;;;7.30;90.10;;;;;;5052560;28;19912;-85
2021/03/24 08:13:03;;;;;;;;;;;7.40;90.30;;;;;;5035537;28;20373;-85
2021/03/24 08:15:53;;;;;;;;;;;7.50;90.20;;;;;;5035361;28;19904;-86
2021/03/24 08:18:35;;;;;;;;;;;7.50;90.20;;;;;;5035739;28;19913;-85
2021/03/24 08:21:03;;;;;;;;;;;7.50;90.10;;;;;;5034783;28;19912;-86
2021/03/24 08:23:39;;;;;;;;;;;7.60;90.10;;;;;;5035031;28;19936;-86
2021/03/24 08:26:18;;;;;;;;;;;7.60;90.10;;;;;;5035037;28;20358;-86
2021/03/24 08:28:53;;;;;;;;;;;7.70;90.00;;;;;;5034955;28;20011;-85
2021/03/24 08:31:32;;;;;;;;;;;7.80;90.00;;;;;;5052753;28;19916;-85
2021/03/24 08:34:27;;;;;;;;;;;7.80;90.00;;;;;;5035228;28;19932;-85
2021/03/24 08:37:12;;;;;;;;;;;7.90;89.90;;;;;;5016390;28;19953;-86
2021/03/24 08:40:06;;;;;;;;;;;7.90;89.80;;;;;;5034322;28;19901;-85
2021/03/24 08:42:55;;;;;;;;;;;8.00;89.30;;;;;;5015351;28;19905;-86
2021/03/24 08:45:30;;;;;;;;;;;8.00;89.10;;;;;;5035119;28;19901;-86
2021/03/24 08:47:58;;;;;;;;;;;8.10;88.70;;;;;;5034934;28;20301;-86
2021/03/24 08:50:28;;;;;;;;;;;8.00;88.60;;;;;;5034237;28;20292;-85
2021/03/24 08:53:05;;;;;;;;;;;8.20;88.30;;;;;;5052391;28;19915;-85
2021/03/24 08:55:49;;;;;;;;;;;8.20;88.10;;;;;;5034701;28;19940;-85
2021/03/24 08:58:17;;;;;;;;;;;8.20;87.80;;;;;;5034921;28;20361;-86
2021/03/24 09:00:48;;;;;;;;;;;8.30;87.50;;;;;;5051711;28;19904;-85
2021/03/24 09:03:23;;;;;;;;;;;8.30;87.20;;;;;;5052494;28;19905;-86
2021/03/24 09:05:56;;;;;;;;;;;8.40;87.40;;;;;;5052937;28;19920;-85
2021/03/24 09:08:26;;;;;;;;;;;8.40;87.10;;;;;;5056737;28;20470;-85
2021/03/24 09:11:10;;;;;;;;;;;8.50;87.10;;;;;;5037883;28;19905;-86
2021/03/24 09:13:38;;;;;;;;;;;8.50;86.80;;;;;;5038460;28;19913;-86
2021/03/24 09:16:10;;;;;;;;;;;8.60;87.00;;;;;;5038425;28;20313;-85
2021/03/24 09:18:38;;;;;;;;;;;8.70;86.90;;;;;;5038165;28;19928;-86
2021/03/24 09:21:09;;;;;;;;;;;8.70;86.10;;;;;;5037574;28;19904;-86
2021/03/24 09:23:35;;;;;;;;;;;8.70;86.30;;;;;;5056092;28;19905;-86
2021/03/24 09:26:12;;;;;;;;;;;8.70;86.30;;;;;;5056260;28;19991;-85
2021/03/24 09:28:44;;;;;;;;;;;8.70;85.90;;;;;;5038222;28;20258;-86
2021/03/24 09:31:09;;;;;;;;;;;8.80;85.80;;;;;;5037286;28;19908;-86
2021/03/24 09:33:42;;;;;;;;;;;8.90;86.20;;;;;;5055917;28;19947;-86
2021/03/24 09:36:10;;;;;;;;;;;8.90;86.10;;;;;;5038314;28;19928;-86
2021/03/24 09:38:38;;;;;;;;;;;9.00;85.50;;;;;;5056035;28;20278;-86
2021/03/24 09:41:21;;;;;;;;;;;9.00;85.30;;;;;;5037309;28;19904;-86
2021/03/24 09:43:50;;;;;;;;;;;9.00;85.10;;;;;;5038036;28;19911;-86
2021/03/24 09:46:15;;;;;;;;;;;9.10;85.10;;;;;;5037899;28;19905;-85
2021/03/24 09:48:49;;;;;;;;;;;9.20;85.00;;;;;;5056075;28;20317;-86
2021/03/24 09:51:18;;;;;;;;;;;9.20;84.70;;;;;;5037384;28;19958;-86
2021/03/24 09:53:44;;;;;;;;;;;9.10;85.20;;;;;;5037610;28;20321;-86
2021/03/24 09:56:20;;;;;;;;;;;9.20;85.10;;;;;;5037597;28;19963;-85
2021/03/24 09:58:55;;;;;;;;;;;9.20;85.20;;;;;;5037567;28;19904;-86
2021/03/24 10:01:27;;;;;;;;;;;9.20;85.10;;;;;;5037447;28;19928;-86
2021/03/24 10:04:08;;;;;;;;;;;9.30;84.80;;;;;;5037779;28;20007;-86
2021/03/24 10:06:54;;;;;;;;;;;9.30;85.10;;;;;;5037469;28;19997;-86
2021/03/24 10:09:25;;;;;;;;;;;9.30;85.10;;;;;;5054852;28;19908;-86
2021/03/24 10:11:50;;;;;;;;;;;9.40;84.20;;;;;;5037225;28;20411;-86
2021/03/24 10:14:31;;;;;;;;;;;9.50;84.30;;;;;;5037439;28;19912;-86
2021/03/24 10:16:59;;;;;;;;;;;9.60;83.60;;;;;;5037366;28;19909;-86
2021/03/24 10:19:36;;;;;;;;;;;9.60;84.10;;;;;;5054403;28;19995;-86
2021/03/24 10:22:08;;;;;;;;;;;9.60;84.10;;;;;;5037097;28;19944;-86
2021/03/24 10:24:53;;;;;;;;;;;9.70;83.60;;;;;;5037367;28;19905;-86
2021/03/24 10:27:25;;;;;;;;;;;9.70;83.80;;;;;;5033286;28;19909;-86
2021/03/24 10:29:56;;;;;;;;;;;9.60;83.70;;;;;;5036447;28;20350;-86
2021/03/24 10:32:27;;;;;;;;;;;9.70;84.10;;;;;;5036923;28;19919;-86
2021/03/24 10:34:59;;;;;;;;;;;9.70;84.20;;;;;;5054773;28;19950;-85
2021/03/24 10:37:47;;;;;;;;;;;9.80;83.80;;;;;;5036835;28;19904;-86
2021/03/24 10:40:13;;;;;;;;;;;9.70;83.80;;;;;;5036340;28;20342;-85
2021/03/24 10:42:43;;;;;;;;;;;9.90;83.60;;;;;;5036736;28;19948;-85
2021/03/24 10:45:27;;;;;;;;;;;9.90;84.00;;;;;;5054689;28;19958;-86
2021/03/24 10:48:08;;;;;;;;;;;10.00;83.10;;;;;;5054565;28;20370;-86
2021/03/24 10:50:49;;;;;;;;;;;10.10;83.00;;;;;;5035911;28;19952;-86
2021/03/24 10:53:22;;;;;;;;;;;10.20;81.60;;;;;;5036305;28;19919;-86
2021/03/24 10:56:07;;;;;;;;;;;10.20;82.00;;;;;;5036488;28;20418;-86
2021/03/24 10:59:02;;;;;;;;;;;10.30;81.00;;;;;;5054372;28;19928;-84
2021/03/24 11:01:48;;;;;;;;;;;10.30;81.00;;;;;;5031907;28;19992;-86
2021/03/24 11:04:16;;;;;;;;;;;10.40;81.70;;;;;;5054604;28;19959;-86
2021/03/24 11:07:03;;;;;;;;;;;10.40;81.70;;;;;;5036215;28;19905;-85
2021/03/24 11:09:58;;;;;;;;;;;10.40;81.80;;;;;;5035501;28;19904;-86
2021/03/24 11:12:35;;;;;;;;;;;10.50;81.40;;;;;;5031757;28;19904;-86
2021/03/24 11:15:13;;;;;;;;;;;10.60;80.90;;;;;;5036022;28;19909;-86
2021/03/24 11:17:40;;;;;;;;;;;10.60;81.60;;;;;;5036251;28;19905;-86
2021/03/24 11:20:31;;;;;;;;;;;10.60;81.90;;;;;;5035526;28;20273;-86
2021/03/24 11:23:00;;;;;;;;;;;10.60;81.40;;;;;;5035321;28;19963;-86
2021/03/24 11:25:28;;;;;;;;;;;10.70;81.60;;;;;;5053732;28;19905;-86
2021/03/24 11:28:23;;;;;;;;;;;10.80;80.90;;;;;;5036051;28;19904;-86
2021/03/24 11:31:00;;;;;;;;;;;10.90;80.40;;;;;;5030772;28;19963;-86
2021/03/24 11:33:29;;;;;;;;;;;10.80;80.60;;;;;;5053634;28;19909;-86
2021/03/24 11:36:16;;;;;;;;;;;10.80;81.30;;;;;;5036044;28;19904;-86
2021/03/24 11:38:46;;;;;;;;;;;10.90;80.50;;;;;;5035784;28;19951;-86
2021/03/24 11:41:22;;;;;;;;;;;11.00;78.10;;;;;;5035058;28;19939;-86
2021/03/24 11:44:14;;;;;;;;;;;11.00;78.90;;;;;;5035643;28;19919;-86
2021/03/24 11:46:42;;;;;;;;;;;11.10;79.60;;;;;;5034530;28;20285;-86
2021/03/24 11:49:14;;;;;;;;;;;11.10;79.50;;;;;;5034933;28;20050;-85
2021/03/24 11:51:43;;;;;;;;;;;11.10;79.70;;;;;;5053325;28;19905;-85
2021/03/24 11:54:36;;;;;;;;;;;11.10;80.20;;;;;;5035239;28;19917;-86
2021/03/24 11:57:01;;;;;;;;;;;11.20;80.60;;;;;;5034212;28;19911;-86
2021/03/24 11:59:30;;;;;;;;;;;11.30;79.80;;;;;;5035172;28;20250;-86
2021/03/24 12:02:06;;;;;;;;;;;11.20;79.70;;;;;;5035519;28;19905;-86
2021/03/24 12:04:31;;;;;;;;;;;11.20;79.30;;;;;;5054462;28;19968;-86
2021/03/24 12:07:16;;;;;;;;;;;11.40;77.80;;;;;;5035556;28;20323;-86
2021/03/24 12:09:41;;;;;;;;;;;11.40;77.40;;;;;;5052733;28;19905;-86
2021/03/24 12:12:10;;;;;;;;;;;11.50;77.10;;;;;;5034910;28;19904;-86
2021/03/24 12:14:36;;;;;;;;;;;11.60;76.30;;;;;;5053358;28;19948;-86
2021/03/24 12:17:05;;;;;;;;;;;11.70;76.10;;;;;;5035037;28;19918;-86
2021/03/24 12:19:36;;;;;;;;;;;11.60;76.80;;;;;;5034391;28;20284;-86
2021/03/24 12:22:04;;;;;;;;;;;11.60;77.50;;;;;;5052721;28;19986;-86
2021/03/24 12:24:32;;;;;;;;;;;11.70;77.10;;;;;;5034929;28;20004;-86
2021/03/24 12:27:14;;;;;;;;;;;11.80;77.20;;;;;;5052885;28;20365;-86
2021/03/24 12:29:41;;;;;;;;;;;11.80;76.40;;;;;;5034541;28;19904;-86
2021/03/24 12:32:15;;;;;;;;;;;11.90;75.40;;;;;;5035085;28;20007;-85
2021/03/24 12:34:43;;;;;;;;;;;12.00;75.30;;;;;;5052634;28;19913;-85
2021/03/24 12:37:20;;;;;;;;;;;12.00;75.70;;;;;;5035124;28;19923;-86
2021/03/24 12:39:46;;;;;;;;;;;11.90;76.50;;;;;;5051934;28;20003;-85
2021/03/24 12:42:31;;;;;;;;;;;12.10;76.60;;;;;;5034028;28;19952;-86
2021/03/24 12:44:59;;;;;;;;;;;12.10;76.40;;;;;;5034809;28;19904;-87
2021/03/24 12:47:28;;;;;;;;;;;12.20;74.20;;;;;;5035161;28;20321;-86
2021/03/24 12:50:19;;;;;;;;;;;12.20;74.30;;;;;;5034870;28;19992;-86
2021/03/24 12:52:48;;;;;;;;;;;12.30;73.50;;;;;;5033532;28;19942;-86
2021/03/24 12:55:15;;;;;;;;;;;12.30;72.80;;;;;;5052388;28;20359;-85
2021/03/24 12:57:59;;;;;;;;;;;12.40;72.70;;;;;;5052613;28;19908;-86
2021/03/24 13:00:38;;;;;;;;;;;12.40;73.00;;;;;;5033926;28;19905;-86
2021/03/24 13:03:22;;;;;;;;;;;12.40;73.30;;;;;;5034327;28;19983;-86
2021/03/24 13:05:57;;;;;;;;;;;12.40;73.00;;;;;;5034589;28;20328;-86
2021/03/24 13:08:37;;;;;;;;;;;12.50;73.10;;;;;;5034651;28;20317;-87
2021/03/24 13:11:22;;;;;;;;;;;12.60;72.90;;;;;;5051860;28;19905;-86
2021/03/24 13:13:51;;;;;;;;;;;12.60;72.70;;;;;;5052676;28;19909;-85
2021/03/24 13:16:20;;;;;;;;;;;12.70;72.90;;;;;;5034429;28;19927;-86
2021/03/24 13:18:48;;;;;;;;;;;12.60;72.50;;;;;;5052337;28;19909;-86
2021/03/24 13:24:11;;;;;;;;;;;12.70;71.00;;;;;;5051202;28;19927;-85
2021/03/24 13:26:37;;;;;;;;;;;12.70;71.60;;;;;;5033509;28;19915;-84
2021/03/24 13:29:21;;;;;;;;;;;12.60;72.20;;;;;;5033953;28;19941;-84
2021/03/24 13:32:02;;;;;;;;;;;12.60;72.90;;;;;;5039559;28;20306;-84
2021/03/24 13:34:47;;;;;;;;;;;12.60;73.50;;;;;;5054090;28;20038;-84
2021/03/24 13:37:17;;;;;;;;;;;12.70;72.20;;;;;;5054422;28;19904;-85
2021/03/24 13:39:55;;;;;;;;;;;12.80;72.40;;;;;;5071370;28;19904;-85
2021/03/24 13:42:21;;;;;;;;;;;12.80;72.00;;;;;;5054226;28;20030;-84
2021/03/24 13:45:00;;;;;;;;;;;12.90;73.00;;;;;;5058495;28;19951;-85
2021/03/24 13:47:35;;;;;;;;;;;12.90;69.00;;;;;;5074626;28;19908;-85
2021/03/24 13:50:12;;;;;;;;;;;13.10;67.30;;;;;;5056805;28;19905;-83
2021/03/24 13:52:45;;;;;;;;;;;13.10;68.40;;;;;;5061712;28;19904;-83
2021/03/24 13:55:29;;;;;;;;;;;13.10;69.30;;;;;;5063452;28;19931;-83
2021/03/24 13:58:24;;;;;;;;;;;13.20;69.70;;;;;;5083542;28;19927;-83
2021/03/24 14:00:54;;;;;;;;;;;13.10;69.80;;;;;;5047071;28;19904;-85
2021/03/24 14:03:20;;;;;;;;;;;13.30;67.10;;;;;;5082471;28;19927;-84
2021/03/24 14:05:54;;;;;;;;;;;13.30;66.10;;;;;;5063413;28;19904;-85
2021/03/24 14:08:33;;;;;;;;;;;13.40;65.70;;;;;;5064327;28;19927;-82
2021/03/24 14:11:14;;;;;;;;;;;13.40;65.60;;;;;;5081558;28;20415;-83
2021/03/24 14:13:45;;;;;;;;;;;13.50;65.70;;;;;;5082867;28;20356;-84
2021/03/24 14:16:13;;;;;;;;;;;13.50;65.60;;;;;;5063658;28;19927;-83
2021/03/24 14:18:59;;;;;;;;;;;13.50;66.40;;;;;;5064830;28;19908;-83
2021/03/24 14:21:24;;;;;;;;;;;13.70;65.30;;;;;;5081790;28;19911;-83
2021/03/24 14:23:56;;;;;;;;;;;13.60;65.40;;;;;;5063195;28;19908;-84
2021/03/24 14:26:21;;;;;;;;;;;13.70;63.30;;;;;;5081398;28;20361;-84
2021/03/24 14:29:06;;;;;;;;;;;13.70;63.20;;;;;;5063732;28;19904;-83
2021/03/24 14:31:39;;;;;;;;;;;13.80;63.40;;;;;;5062911;28;19942;-84
2021/03/24 14:34:14;;;;;;;;;;;13.80;63.80;;;;;;5062994;28;19908;-83
2021/03/24 14:36:40;;;;;;;;;;;13.80;64.00;;;;;;5061523;28;19904;-83
2021/03/24 14:39:05;;;;;;;;;;;13.90;63.10;;;;;;5061285;28;19914;-83
2021/03/24 14:41:46;;;;;;;;;;;13.90;63.90;;;;;;5062954;28;20405;-84
2021/03/24 14:44:18;;;;;;;;;;;13.90;64.10;;;;;;5061885;28;19904;-83
2021/03/24 14:46:43;;;;;;;;;;;14.00;64.30;;;;;;5065116;28;19943;-83
2021/03/24 14:49:21;;;;;;;;;;;14.00;64.50;;;;;;5064208;28;19905;-85
2021/03/24 14:51:48;;;;;;;31.88;17.58;;;14.00;64.70;;;;;;5063260;28;20104;-84
2021/03/24 14:54:16;;;;;;;;;;;14.00;64.60;;;;;;5062636;28;20039;-83
2021/03/24 14:56:43;;;;;;;;;;;14.10;63.90;;;;;;5065151;28;19904;-83
2021/03/24 14:59:08;;;;;;;;;;;14.10;63.30;;;;;;5082538;28;20011;-84
2021/03/24 15:01:42;;;;;;;37.55;17.48;;;14.10;63.30;;;;;;5064691;28;19904;-84
2021/03/24 15:04:23;;;;;;;35.85;17.90;;;14.20;61.50;;;;;;5062644;28;20063;-84
2021/03/24 15:06:50;;;;;;;;;;;14.30;61.80;;;;;;5064823;28;20020;-85
2021/03/24 15:09:33;;;;;;;;;;;14.40;61.40;;;;;;5083134;28;19978;-84
2021/03/24 15:12:30;;;;;;;34.20;17.70;;;14.60;60.20;;;;;;5065060;28;20384;-84
2021/03/24 15:14:55;;;;;;;30.67;16.55;;;14.60;59.30;;;;;;5081547;28;20033;-86
2021/03/24 15:17:36;;;;;;;33.85;17.38;;;14.50;59.90;;;;;;5081982;28;20503;-85
2021/03/24 15:20:17;;;;;;;;;;;14.60;59.50;;;;;;5064204;28;20059;-85
2021/03/24 15:22:48;;;;;;;;;;;14.60;59.90;;;;;;5059545;28;626758;-84
2021/03/24 15:25:20;;;;;;;;;;;14.60;60.60;;;;;;5083506;28;19936;-85
2021/03/24 15:27:49;;;;;;;28.70;16.25;;;14.80;60.40;;;;;;5081847;28;19943;-85
2021/03/24 15:30:40;;;;;;;36.40;17.85;;;14.80;59.70;;;;;;5080134;28;20067;-84